Time;durP1;ratioP1;P1;durP2;ratioP2;P2;SDS_P1;SDS_P2;PMS_P1;PMS_P2;Temp;Humidity;BMP_temperature;BMP_pressure;BME280_temperature;BME280_humidity;BME280_pressure;Samples;Min_cycle;Max_cycle;Signal;HPM_P1;HPM_P2
2022/11/03 00:01:36;;;;;;;11.93;2.53;;;;;;;;;;5050748;28;20137;-69
2022/11/03 00:04:02;;;;;;;11.35;2.58;;;;;;;;;;5050668;28;20041;-69
2022/11/03 00:06:28;;;;;;;15.30;2.72;;;;;;;;;;5053684;28;20040;-69
2022/11/03 00:08:56;;;;;;;17.77;3.05;;;;;;;;;;5070676;28;20479;-69
2022/11/03 00:11:22;;;;;;;10.93;2.17;;;;;;;;;;5070415;28;20540;-69
2022/11/03 00:13:48;;;;;;;15.10;2.97;;;;;;;;;;5070016;28;20045;-69
2022/11/03 00:16:14;;;;;;;17.75;3.08;;;;;;;;;;5070623;28;20040;-69
2022/11/03 01:39:15;;;;;;;11.43;2.35;;;;;;;;;;5073285;28;19920;-69
2022/11/03 01:41:42;;;;;;;16.17;2.92;;;;;;;;;;5105039;28;20074;-69
2022/11/03 01:44:08;;;;;;;13.05;2.75;;;;;;;;;;5072910;28;20055;-69
2022/11/03 01:46:43;;;;;;;13.77;2.75;;;;;;;;;;5073237;28;20045;-69
2022/11/03 01:49:13;;;;;;;14.80;3.47;;;;;;;;;;5104532;28;20048;-69
2022/11/03 01:51:40;;;;;;;15.07;2.47;;;;;;;;;;5073396;28;20126;-69
2022/11/03 01:54:09;;;;;;;10.93;2.70;;;;;;;;;;5073182;28;20037;-69
2022/11/03 01:56:37;;;;;;;12.02;2.75;;;;;;;;;;5072643;28;20040;-69
2022/11/03 01:59:04;;;;;;;11.32;2.45;;;;;;;;;;5105621;28;20040;-69
2022/11/03 02:01:30;;;;;;;12.77;2.25;;;;;;;;;;5072566;28;20040;-70
2022/11/03 02:03:59;;;;;;;10.52;2.60;;;;;;;;;;5071440;28;20051;-69
2022/11/03 02:06:26;;;;;;;11.65;2.63;;;;;;;;;;5072556;28;20033;-69
2022/11/03 02:09:03;;;;;;;21.02;3.20;;;;;;;;;;5072453;28;20383;-69
2022/11/03 02:14:15;;;;;;;16.23;2.97;;;;;;;;;;5072651;28;20070;-69
2022/11/03 02:16:43;;;;;;;15.50;2.65;;;;;;;;;;5071093;28;20101;-69
2022/11/03 02:19:17;;;;;;;15.95;3.13;;;;;;;;;;5071987;28;20055;-69
2022/11/03 02:21:50;;;;;;;13.27;2.67;;;;;;;;;;5072535;28;20040;-69
2022/11/03 02:24:16;;;;;;;;;;;;;;;;;;5072931;28;20037;-69
2022/11/03 02:26:43;;;;;;;17.75;2.80;;;;;;;;;;5072076;28;19970;-69
2022/11/03 02:29:09;;;;;;;10.73;2.35;;;;;;;;;;5072346;28;20040;-69
2022/11/03 02:31:41;;;;;;;11.25;2.72;;;;;;;;;;5072121;28;20040;-69
2022/11/03 02:34:07;;;;;;;15.38;2.42;;;;;;;;;;5072089;28;20048;-69
2022/11/03 02:36:33;;;;;;;14.00;2.63;;;;;;;;;;5104837;28;20407;-69
2022/11/03 02:39:05;;;;;;;21.67;3.35;;;;;;;;;;5071849;28;20106;-69
2022/11/03 02:41:34;;;;;;;11.88;2.63;;;;;;;;;;5071812;28;20063;-69
2022/11/03 02:44:01;;;;;;;14.45;2.92;;;;;;;;;;5071836;28;20072;-69
2022/11/03 02:46:27;;;;;;;13.73;2.92;;;;;;;;;;5072183;28;20045;-69
2022/11/03 02:48:53;;;;;;;8.63;2.33;;;;;;;;;;5071561;28;20042;-69
2022/11/03 02:51:19;;;;;;;15.05;3.35;;;;;;;;;;5071696;28;20329;-69
2022/11/03 02:53:49;;;;;;;18.67;3.13;;;;;;;;;;5071842;28;20098;-69
2022/11/03 02:56:19;;;;;;;12.98;2.75;;;;;;;;;;5071456;28;20044;-69
2022/11/03 02:58:57;;;;;;;8.82;2.33;;;;;;;;;;5071876;28;20040;-69
2022/11/03 03:01:45;;;;;;;13.30;2.58;;;;;;;;;;5070777;28;20036;-69
2022/11/03 03:04:15;;;;;;;12.80;2.90;;;;;;;;;;5071512;28;20052;-69
2022/11/03 03:06:47;;;;;;;13.90;2.78;;;;;;;;;;5071699;28;20060;-69
2022/11/03 03:09:17;;;;;;;12.40;3.20;;;;;;;;;;5071472;28;20036;-69
2022/11/03 03:11:44;;;;;;;13.32;2.63;;;;;;;;;;5070908;28;20047;-69
2022/11/03 03:14:17;;;;;;;8.95;2.17;;;;;;;;;;5071580;28;20423;-69
2022/11/03 03:16:48;;;;;;;13.65;2.35;;;;;;;;;;5071587;28;20495;-70
2022/11/03 03:19:43;;;;;;;12.70;3.05;;;;;;;;;;5070774;28;20048;-69
2022/11/03 03:22:14;;;;;;;11.73;2.53;;;;;;;;;;5066035;28;20048;-69
2022/11/03 03:25:07;;;;;;;13.38;3.00;;;;;;;;;;5071422;28;20059;-69
2022/11/03 03:27:34;;;;;;;12.60;2.05;;;;;;;;;;5042767;28;20132;-69
2022/11/03 03:30:05;;;;;;;12.80;3.25;;;;;;;;;;5050980;28;20095;-69
2022/11/03 03:32:33;;;;;;;11.20;2.30;;;;;;;;;;5066329;28;20470;-69
2022/11/03 03:35:00;;;;;;;17.20;3.08;;;;;;;;;;5071146;28;20456;-69
2022/11/03 03:37:26;;;;;;;16.15;3.05;;;;;;;;;;5070781;28;20044;-69
2022/11/03 03:39:54;;;;;;;17.58;2.95;;;;;;;;;;5070381;28;20275;-69
2022/11/03 03:42:21;;;;;;;18.10;3.30;;;;;;;;;;5071063;28;20124;-69
2022/11/03 03:44:48;;;;;;;13.52;2.80;;;;;;;;;;5070909;28;20044;-69
2022/11/03 03:47:17;;;;;;;12.52;2.58;;;;;;;;;;5070644;28;20036;-69
2022/11/03 03:49:43;;;;;;;7.65;2.53;;;;;;;;;;5070893;28;20443;-69
2022/11/03 03:52:09;;;;;;;12.80;2.60;;;;;;;;;;5070852;28;20051;-69
2022/11/03 03:54:36;;;;;;;12.15;2.78;;;;;;;;;;5070398;28;20036;-69
2022/11/03 03:57:03;;;;;;;17.52;2.78;;;;;;;;;;5069103;28;20564;-69
2022/11/03 03:59:29;;;;;;;14.30;3.00;;;;;;;;;;5070597;28;20036;-69
2022/11/03 04:01:55;;;;;;;16.38;2.60;;;;;;;;;;5070355;28;20036;-69
2022/11/03 04:04:22;;;;;;;11.70;2.17;;;;;;;;;;5070491;28;20040;-69
2022/11/03 04:06:48;;;;;;;15.52;2.92;;;;;;;;;;5070617;28;20615;-69
2022/11/03 04:09:14;;;;;;;12.95;2.85;;;;;;;;;;5070723;28;20040;-69
2022/11/03 04:22:48;;;;;;;14.15;2.38;;;;;;;;;;5070609;28;20045;-69
2022/11/03 04:25:15;;;;;;;13.50;2.40;;;;;;;;;;5070212;28;20391;-69
2022/11/03 04:27:41;;;;;;;14.52;2.20;;;;;;;;;;5068958;28;20033;-69
2022/11/03 04:30:14;;;;;;;12.07;2.88;;;;;;;;;;5069152;28;20040;-69
2022/11/03 04:32:40;;;;;;;20.00;3.35;;;;;;;;;;5070056;28;20473;-69
2022/11/03 04:35:29;;;;;;;13.23;2.33;;;;;;;;;;5070552;28;20086;-69
2022/11/03 04:37:57;;;;;;;11.98;2.40;;;;;;;;;;5069428;28;20041;-69
2022/11/03 04:40:24;;;;;;;9.93;2.47;;;;;;;;;;5102265;28;20063;-69
2022/11/03 04:42:50;;;;;;;13.35;2.53;;;;;;;;;;5070382;28;20122;-69
2022/11/03 04:45:19;;;;;;;17.55;2.97;;;;;;;;;;5070307;28;20120;-69
2022/11/03 04:47:45;;;;;;;11.43;2.25;;;;;;;;;;5070033;28;20085;-69
2022/11/03 04:50:15;;;;;;;12.80;2.78;;;;;;;;;;5070442;28;20075;-69
2022/11/03 04:52:41;;;;;;;17.40;2.58;;;;;;;;;;5070428;28;20032;-69
2022/11/03 04:55:09;;;;;;;14.60;3.03;;;;;;;;;;5069788;28;20086;-69
2022/11/03 04:57:36;;;;;;;13.48;2.65;;;;;;;;;;5070197;28;20085;-69
2022/11/03 05:00:02;;;;;;;14.20;2.83;;;;;;;;;;5070203;28;20554;-69
2022/11/03 05:02:29;;;;;;;11.38;2.60;;;;;;;;;;5069631;28;20040;-69
2022/11/03 05:04:54;;;;;;;13.70;2.35;;;;;;;;;;5070245;28;20048;-69
2022/11/03 05:07:28;;;;;;;15.45;2.97;;;;;;;;;;5070033;28;20418;-69
2022/11/03 05:09:54;;;;;;;10.23;2.22;;;;;;;;;;5069594;28;20041;-69
2022/11/03 05:12:21;;;;;;;16.92;3.13;;;;;;;;;;5070120;28;20055;-69
2022/11/03 05:14:47;;;;;;;8.27;2.50;;;;;;;;;;5070193;28;20506;-69
2022/11/03 05:17:31;;;;;;;10.48;2.67;;;;;;;;;;5069675;28;20116;-69
2022/11/03 05:19:59;;;;;;;9.85;2.40;;;;;;;;;;5070049;28;20069;-69
2022/11/03 05:22:28;;;;;;;16.08;2.40;;;;;;;;;;5069980;28;20400;-69
2022/11/03 05:25:00;;;;;;;13.63;2.22;;;;;;;;;;5071039;28;20049;-69
2022/11/03 05:27:26;;;;;;;10.13;2.30;;;;;;;;;;5053540;28;20037;-69
2022/11/03 05:29:53;;;;;;;12.30;2.63;;;;;;;;;;5053311;28;20116;-69
2022/11/03 05:32:20;;;;;;;11.02;2.63;;;;;;;;;;5066966;28;20040;-69
2022/11/03 05:34:47;;;;;;;9.70;2.47;;;;;;;;;;5073332;28;20044;-69
2022/11/03 05:37:22;;;;;;;11.00;2.50;;;;;;;;;;5073181;28;20064;-69
2022/11/03 05:39:49;;;;;;;16.05;2.50;;;;;;;;;;5072318;28;20120;-69
2022/11/03 05:42:33;;;;;;;13.75;3.92;;;;;;;;;;5073294;28;20135;-69
2022/11/03 05:45:01;;;;;;;18.10;2.97;;;;;;;;;;5073311;28;20045;-69
2022/11/03 05:47:31;;;;;;;13.55;2.67;;;;;;;;;;5072921;28;20044;-69
2022/11/03 05:50:00;;;;;;;7.68;2.50;;;;;;;;;;5073136;28;20483;-69
2022/11/03 05:52:27;;;;;;;14.57;2.97;;;;;;;;;;5073162;28;20119;-69
2022/11/03 05:54:55;;;;;;;14.07;2.40;;;;;;;;;;5072621;28;20047;-69
2022/11/03 05:57:21;;;;;;;13.32;2.70;;;;;;;;;;5072788;28;20032;-69
2022/11/03 05:59:49;;;;;;;13.05;2.90;;;;;;;;;;5072556;28;20072;-69
2022/11/03 06:02:36;;;;;;;10.43;2.85;;;;;;;;;;5072257;28;20044;-69
2022/11/03 06:05:11;;;;;;;12.50;3.10;;;;;;;;;;5072856;28;20055;-69
2022/11/03 06:07:37;;;;;;;17.40;3.08;;;;;;;;;;5071320;28;20051;-69
2022/11/03 06:10:16;;;;;;;13.05;3.13;;;;;;;;;;5070859;28;20245;-69
2022/11/03 06:12:42;;;;;;;11.50;2.53;;;;;;;;;;5072485;28;20090;-69
2022/11/03 06:15:20;;;;;;;15.75;2.40;;;;;;;;;;5072719;28;20617;-69
2022/11/03 06:17:46;;;;;;;13.77;2.80;;;;;;;;;;5072555;28;20072;-69
2022/11/03 06:20:17;;;;;;;11.00;2.40;;;;;;;;;;5071208;28;20044;-69
2022/11/03 06:22:44;;;;;;;13.13;2.53;;;;;;;;;;5071913;28;20036;-69
2022/11/03 06:25:10;;;;;;;14.95;2.72;;;;;;;;;;5072356;28;20499;-69
2022/11/03 06:27:36;;;;;;;12.25;2.63;;;;;;;;;;5072025;28;20042;-69
2022/11/03 06:30:12;;;;;;;10.93;2.60;;;;;;;;;;5071405;28;20056;-69
2022/11/03 06:32:38;;;;;;;12.93;2.58;;;;;;;;;;5072109;28;20416;-69
2022/11/03 06:35:04;;;;;;;11.25;2.95;;;;;;;;;;5072305;28;20051;-69
2022/11/03 06:37:31;;;;;;;19.30;3.30;;;;;;;;;;5071255;28;20410;-69
2022/11/03 06:39:59;;;;;;;14.32;2.60;;;;;;;;;;5072178;28;20097;-69
2022/11/03 06:42:26;;;;;;;13.30;3.20;;;;;;;;;;5072079;28;20139;-69
2022/11/03 06:44:52;;;;;;;14.07;2.60;;;;;;;;;;5071851;28;20680;-69
2022/11/03 06:47:22;;;;;;;11.95;2.75;;;;;;;;;;5071984;28;20526;-69
2022/11/03 06:49:49;;;;;;;10.07;2.65;;;;;;;;;;5071896;28;20051;-69
2022/11/03 06:52:26;;;;;;;13.02;2.83;;;;;;;;;;5071460;28;20463;-69
2022/11/03 06:55:15;;;;;;;17.05;3.20;;;;;;;;;;5071839;28;20380;-69
2022/11/03 06:57:42;;;;;;;15.18;3.53;;;;;;;;;;5070825;28;20048;-69
2022/11/03 07:00:21;;;;;;;9.32;2.58;;;;;;;;;;5071279;28;20478;-69
2022/11/03 07:02:50;;;;;;;11.25;2.58;;;;;;;;;;5071369;28;20040;-69
2022/11/03 07:05:27;;;;;;;14.13;3.10;;;;;;;;;;5071325;28;20043;-69
2022/11/03 07:07:57;;;;;;;14.38;3.00;;;;;;;;;;5070822;28;20037;-69
2022/11/03 07:10:32;;;;;;;12.23;2.90;;;;;;;;;;5071355;28;20041;-69
2022/11/03 07:13:18;;;;;;;10.52;2.90;;;;;;;;;;5071404;28;20110;-69
2022/11/03 07:15:45;;;;;;;14.18;3.60;;;;;;;;;;5070255;28;20040;-69
2022/11/03 07:18:23;;;;;;;13.48;3.28;;;;;;;;;;5067698;28;20036;-67
2022/11/03 07:20:49;;;;;;;11.60;2.97;;;;;;;;;;5068404;28;20075;-68
2022/11/03 07:23:19;;;;;;;15.35;3.13;;;;;;;;;;5063249;28;20552;-70
2022/11/03 07:25:48;;;;;;;12.77;2.95;;;;;;;;;;5067219;28;20059;-68
2022/11/03 07:28:14;;;;;;;15.35;2.63;;;;;;;;;;5069785;28;20036;-68
2022/11/03 07:30:41;;;;;;;11.25;2.38;;;;;;;;;;5069187;28;20044;-67
2022/11/03 07:33:16;;;;;;;11.90;2.50;;;;;;;;;;5069823;28;20101;-69
2022/11/03 07:35:43;;;;;;;9.00;2.80;;;;;;;;;;5069796;28;20596;-68
2022/11/03 07:38:13;;;;;;;20.13;3.65;;;;;;;;;;5069356;28;20391;-68
2022/11/03 07:40:39;;;;;;;13.50;2.95;;;;;;;;;;5070173;28;20115;-69
2022/11/03 07:43:18;;;;;;;12.02;3.10;;;;;;;;;;5068740;28;20302;-69
2022/11/03 07:45:50;;;;;;;12.38;2.90;;;;;;;;;;5067427;28;20056;-68
2022/11/03 07:48:21;;;;;;;10.57;3.05;;;;;;;;;;5068336;28;20041;-67
2022/11/03 07:50:48;;;;;;;15.30;3.17;;;;;;;;;;5069917;28;20048;-68
2022/11/03 07:53:18;;;;;;;18.90;3.33;;;;;;;;;;5068641;28;20048;-68
2022/11/03 07:55:47;;;;;;;13.55;2.92;;;;;;;;;;5068733;28;20044;-68
2022/11/03 07:58:25;;;;;;;14.70;2.90;;;;;;;;;;5066974;28;20052;-69
2022/11/03 08:00:54;;;;;;;13.10;2.88;;;;;;;;;;5060946;28;20117;-68
2022/11/03 08:03:40;;;;;;;11.82;2.90;;;;;;;;;;5068594;28;20055;-68
2022/11/03 08:06:06;;;;;;;10.85;2.75;;;;;;;;;;5065233;28;20072;-67
2022/11/03 08:08:32;;;;;;;12.43;3.10;;;;;;;;;;5068508;28;20432;-67
2022/11/03 08:10:58;;;;;;;10.52;2.65;;;;;;;;;;5069599;28;20091;-67
2022/11/03 08:13:24;;;;;;;14.18;3.20;;;;;;;;;;5069004;28;20068;-68
2022/11/03 08:15:50;;;;;;;14.50;2.90;;;;;;;;;;5068392;28;20098;-68
2022/11/03 08:18:16;;;;;;;18.50;3.40;;;;;;;;;;5069677;28;20481;-68
2022/11/03 08:20:42;;;;;;;14.48;3.30;;;;;;;;;;5069203;28;20055;-68
2022/11/03 08:23:10;;;;;;;12.98;3.20;;;;;;;;;;5069161;28;20055;-68
2022/11/03 08:25:36;;;;;;;14.15;3.15;;;;;;;;;;5066998;28;20036;-68
2022/11/03 08:28:03;;;;;;;11.45;2.58;;;;;;;;;;5068103;28;20077;-68
2022/11/03 08:30:29;;;;;;;11.77;2.85;;;;;;;;;;5068744;28;20072;-68
2022/11/03 08:32:55;;;;;;;12.88;3.00;;;;;;;;;;5068631;28;20497;-69
2022/11/03 08:35:21;;;;;;;12.85;3.50;;;;;;;;;;5068939;28;20395;-67
2022/11/03 08:37:47;;;;;;;12.43;3.47;;;;;;;;;;5068518;28;20044;-68
2022/11/03 08:40:13;;;;;;;11.88;3.10;;;;;;;;;;5068836;28;20135;-68
2022/11/03 08:42:39;;;;;;;14.80;3.05;;;;;;;;;;5069254;28;20044;-68
2022/11/03 08:45:06;;;;;;;19.55;2.97;;;;;;;;;;5068331;28;20414;-68
2022/11/03 08:47:32;;;;;;;9.13;2.80;;;;;;;;;;5069164;28;20386;-68
2022/11/03 08:49:59;;;;;;;14.43;3.22;;;;;;;;;;5068506;28;20123;-68
2022/11/03 08:52:25;;;;;;;13.50;2.97;;;;;;;;;;5068971;28;20040;-68
2022/11/03 08:54:51;;;;;;;16.95;3.30;;;;;;;;;;5068409;28;20132;-70
2022/11/03 08:57:17;;;;;;;12.50;2.90;;;;;;;;;;5069095;28;20075;-70
2022/11/03 08:59:43;;;;;;;12.38;3.08;;;;;;;;;;5069301;28;20044;-70
2022/11/03 09:02:10;;;;;;;12.65;2.92;;;;;;;;;;5072531;28;20035;-71
2022/11/03 09:04:36;;;;;;;9.10;3.17;;;;;;;;;;5071918;28;20040;-70
2022/11/03 09:07:02;;;;;;;13.75;2.90;;;;;;;;;;5071422;28;20048;-70
2022/11/03 09:09:28;;;;;;;12.10;2.90;;;;;;;;;;5070773;28;20093;-69
2022/11/03 09:11:54;;;;;;;11.30;3.35;;;;;;;;;;5072301;28;20487;-68
2022/11/03 09:14:20;;;;;;;11.75;2.88;;;;;;;;;;5071377;28;20037;-69
2022/11/03 09:16:46;;;;;;;12.25;3.25;;;;;;;;;;5072723;28;20033;-69
2022/11/03 09:19:12;;;;;;;11.52;3.33;;;;;;;;;;5072990;28;20036;-68
2022/11/03 09:21:38;;;;;;;12.38;3.38;;;;;;;;;;5072189;28;20041;-66
2022/11/03 09:24:04;;;;;;;15.20;3.40;;;;;;;;;;5072314;28;20101;-67
2022/11/03 09:26:30;;;;;;;13.52;3.50;;;;;;;;;;5072589;28;20044;-67
2022/11/03 09:28:56;;;;;;;18.95;3.47;;;;;;;;;;5072473;28;20037;-68
2022/11/03 09:31:24;;;;;;;10.60;2.65;;;;;;;;;;5072650;28;20036;-68
2022/11/03 09:33:50;;;;;;;10.50;2.83;;;;;;;;;;5071861;28;20102;-68
2022/11/03 09:36:16;;;;;;;10.93;3.22;;;;;;;;;;5072261;28;20040;-68
2022/11/03 09:38:43;;;;;;;11.43;2.92;;;;;;;;;;5070225;28;20048;-69
2022/11/03 09:41:09;;;;;;;16.42;3.13;;;;;;;;;;5072621;28;20052;-67
2022/11/03 09:43:35;;;;;;;11.57;2.92;;;;;;;;;;5071490;28;20040;-68
2022/11/03 09:46:01;;;;;;;10.80;3.10;;;;;;;;;;5071900;28;20596;-68
2022/11/03 09:48:28;;;;;;;11.52;3.17;;;;;;;;;;5072342;28;20044;-68
2022/11/03 09:50:54;;;;;;;11.57;3.00;;;;;;;;;;5071820;28;20047;-67
2022/11/03 09:53:20;;;;;;;11.77;2.80;;;;;;;;;;5072150;28;20487;-67
2022/11/03 09:55:46;;;;;;;14.02;3.13;;;;;;;;;;5071710;28;20550;-67
2022/11/03 09:58:14;;;;;;;9.20;2.70;;;;;;;;;;5071536;28;20040;-68
2022/11/03 10:00:40;;;;;;;11.32;3.13;;;;;;;;;;5072052;28;20534;-69
2022/11/03 10:03:06;;;;;;;12.95;3.40;;;;;;;;;;5071796;28;20080;-68
2022/11/03 10:05:33;;;;;;;13.45;3.17;;;;;;;;;;5069803;28;20040;-67
2022/11/03 10:08:02;;;;;;;11.70;3.45;;;;;;;;;;5071863;28;20325;-67
2022/11/03 10:10:28;;;;;;;16.10;3.20;;;;;;;;;;5071033;28;20041;-67
2022/11/03 10:12:55;;;;;;;11.75;3.30;;;;;;;;;;5071274;28;20040;-67
2022/11/03 10:15:23;;;;;;;13.55;3.17;;;;;;;;;;5071871;28;20438;-67
2022/11/03 10:17:49;;;;;;;9.38;2.38;;;;;;;;;;5071636;28;20097;-67
2022/11/03 10:20:16;;;;;;;15.35;3.30;;;;;;;;;;5071003;28;20417;-67
2022/11/03 10:22:43;;;;;;;14.38;3.28;;;;;;;;;;5071280;28;20041;-69
2022/11/03 10:25:26;;;;;;;14.93;2.70;;;;;;;;;;5071648;28;20477;-68
2022/11/03 10:27:52;;;;;;;10.45;2.63;;;;;;;;;;5068877;28;20135;-68
2022/11/03 10:30:18;;;;;;;13.25;3.35;;;;;;;;;;5070350;28;20420;-68
2022/11/03 10:32:44;;;;;;;11.90;2.40;;;;;;;;;;5071192;28;20052;-68
2022/11/03 10:35:29;;;;;;;10.00;2.78;;;;;;;;;;5071161;28;20471;-70
2022/11/03 10:37:55;;;;;;;9.13;2.53;;;;;;;;;;5070339;28;20052;-68
2022/11/03 10:40:35;;;;;;;9.35;2.55;;;;;;;;;;5070916;28;20055;-68
2022/11/03 10:43:01;;;;;;;12.20;2.85;;;;;;;;;;5070527;28;20090;-69
2022/11/03 10:45:27;;;;;;;10.65;2.55;;;;;;;;;;5070665;28;20048;-69
2022/11/03 10:48:05;;;;;;;8.93;2.47;;;;;;;;;;5070880;28;20036;-69
2022/11/03 10:50:32;;;;;;;10.20;2.30;;;;;;;;;;5070621;28;20522;-68
2022/11/03 10:52:58;;;;;;;8.35;2.50;;;;;;;;;;5070610;28;20141;-69
2022/11/03 10:55:24;;;;;;;8.55;2.15;;;;;;;;;;5071017;28;20351;-69
2022/11/03 10:57:50;;;;;;;12.63;2.67;;;;;;;;;;5069266;28;20102;-67
2022/11/03 11:00:17;;;;;;;10.40;2.40;;;;;;;;;;5070769;28;20084;-68
2022/11/03 11:02:44;;;;;;;8.13;2.38;;;;;;;;;;5070638;28;20564;-69
2022/11/03 11:05:23;;;;;;;12.35;2.33;;;;;;;;;;5070196;28;20044;-69
2022/11/03 11:07:50;;;;;;;10.80;2.70;;;;;;;;;;5070040;28;20044;-68
2022/11/03 11:10:26;;;;;;;12.15;2.75;;;;;;;;;;5070165;28;20151;-69
2022/11/03 11:13:06;;;;;;;13.27;2.47;;;;;;;;;;5069697;28;20051;-67
2022/11/03 11:15:35;;;;;;;7.60;2.10;;;;;;;;;;5070424;28;20063;-68
2022/11/03 11:18:01;;;;;;;9.32;2.58;;;;;;;;;;5069944;28;20036;-68
2022/11/03 11:20:35;;;;;;;8.45;2.17;;;;;;;;;;5069764;28;20415;-67
2022/11/03 11:23:19;;;;;;;8.88;2.00;;;;;;;;;;5069423;28;20076;-67
2022/11/03 11:26:04;;;;;;;9.25;2.40;;;;;;;;;;5069893;28;20036;-67
2022/11/03 11:28:30;;;;;;;7.63;2.53;;;;;;;;;;5070152;28;20036;-69
2022/11/03 11:30:56;;;;;;;9.43;2.33;;;;;;;;;;5069992;28;20068;-67
2022/11/03 11:33:24;;;;;;;6.82;2.15;;;;;;;;;;5068748;28;20048;-68
2022/11/03 11:35:50;;;;;;;10.40;2.38;;;;;;;;;;5070482;28;20131;-66
2022/11/03 11:38:39;;;;;;;11.80;2.30;;;;;;;;;;5070337;28;20051;-65
2022/11/03 11:41:05;;;;;;;10.13;2.55;;;;;;;;;;5066194;28;20395;-69
2022/11/03 11:43:31;;;;;;;12.65;2.25;;;;;;;;;;5069846;28;20102;-69
2022/11/03 11:46:16;;;;;;;10.15;2.85;;;;;;;;;;5069852;28;20036;-69
2022/11/03 11:48:42;;;;;;;8.52;2.10;;;;;;;;;;5069944;28;20040;-69
2022/11/03 11:51:09;;;;;;;8.73;2.10;;;;;;;;;;5070517;28;20090;-69
2022/11/03 11:53:41;;;;;;;6.57;2.00;;;;;;;;;;5069988;28;20037;-69
2022/11/03 11:56:09;;;;;;;7.00;2.10;;;;;;;;;;5069916;28;20153;-69
2022/11/03 11:58:46;;;;;;;7.72;1.90;;;;;;;;;;5070451;28;20068;-69
2022/11/03 12:01:23;;;;;;;8.50;2.40;;;;;;;;;;5070191;28;20082;-69
2022/11/03 12:03:51;;;;;;;11.63;2.30;;;;;;;;;;5069839;28;20049;-69
2022/11/03 12:06:17;;;;;;;6.30;2.10;;;;;;;;;;5070243;28;20083;-69
2022/11/03 12:08:43;;;;;;;7.20;2.00;;;;;;;;;;5070034;28;20114;-69
2022/11/03 12:11:10;;;;;;;7.90;2.05;;;;;;;;;;5069579;28;20037;-69
2022/11/03 12:13:36;;;;;;;10.70;2.05;;;;;;;;;;5069768;28;20037;-69
2022/11/03 12:16:03;;;;;;;8.52;2.22;;;;;;;;;;5052016;28;20053;-69
2022/11/03 12:18:29;;;;;;;6.10;1.70;;;;;;;;;;5069737;28;20116;-69
2022/11/03 12:20:55;;;;;;;14.10;2.65;;;;;;;;;;5069667;28;20518;-67
2022/11/03 12:23:35;;;;;;;7.78;2.30;;;;;;;;;;5070033;28;20036;-67
2022/11/03 12:26:01;;;;;;;15.15;3.28;;;;;;;;;;5069276;28;20111;-67
2022/11/03 12:28:34;;;;;;;7.60;1.65;;;;;;;;;;5069844;28;20514;-66
2022/11/03 12:31:00;;;;;;;4.90;1.90;;;;;;;;;;5069509;28;20110;-66
2022/11/03 12:33:27;;;;;;;4.95;1.80;;;;;;;;;;5069440;28;20046;-66
2022/11/03 12:35:54;;;;;;;9.05;1.80;;;;;;;;;;5072232;28;20056;-66
2022/11/03 12:38:20;;;;;;;7.40;1.80;;;;;;;;;;5073604;28;20121;-67
2022/11/03 12:40:46;;;;;;;5.93;2.40;;;;;;;;;;5073272;28;20399;-67
2022/11/03 12:43:12;;;;;;;7.80;2.30;;;;;;;;;;5074085;28;20053;-65
2022/11/03 12:45:39;;;;;;;11.82;2.08;;;;;;;;;;5073778;28;20039;-65
2022/11/03 12:48:06;;;;;;;8.48;1.73;;;;;;;;;;5073485;28;20056;-65
2022/11/03 12:50:32;;;;;;;10.20;1.83;;;;;;;;;;5073295;28;20055;-65
2022/11/03 12:52:58;;;;;;;6.55;1.85;;;;;;;;;;5073578;28;20041;-66
2022/11/03 12:55:24;;;;;;;7.82;1.75;;;;;;;;;;5073069;28;20123;-67
2022/11/03 12:57:50;;;;;;;6.82;1.80;;;;;;;;;;5072105;28;20045;-67
2022/11/03 13:00:16;;;;;;;7.40;2.05;;;;;;;;;;5073081;28;20040;-67
2022/11/03 13:02:43;;;;;;;12.43;2.30;;;;;;;;;;5073144;28;20402;-67
2022/11/03 13:05:09;;;;;;;7.22;2.25;;;;;;;;;;5072066;28;20075;-66
2022/11/03 13:07:35;;;;;;;6.32;1.70;;;;;;;;;;5073459;28;20547;-66
2022/11/03 13:10:02;;;;;;;8.85;1.85;;;;;;;;;;5072946;28;20608;-66
2022/11/03 13:12:31;;;;;;;7.72;1.70;;;;;;;;;;5073151;28;20048;-66
2022/11/03 13:14:58;;;;;;;8.82;1.92;;;;;;;;;;5073433;28;20474;-66
2022/11/03 13:17:25;;;;;;;6.72;2.25;;;;;;;;;;5072885;28;20076;-65
2022/11/03 13:19:51;;;;;;;5.43;1.45;;;;;;;;;;5072823;28;20047;-65
2022/11/03 13:22:17;;;;;;;7.60;1.70;;;;;;;;;;5072822;28;20036;-65
2022/11/03 13:24:43;;;;;;;3.50;1.35;;;;;;;;;;5072635;28;20472;-65
2022/11/03 13:27:09;;;;;;;5.75;1.77;;;;;;;;;;5072978;28;20036;-66
2022/11/03 13:29:35;;;;;;;6.57;1.70;;;;;;;;;;5071252;28;20036;-67
2022/11/03 13:32:02;;;;;;;6.97;1.45;;;;;;;;;;5072281;28;20470;-66
2022/11/03 13:34:28;;;;;;;5.10;1.38;;;;;;;;;;5072572;28;20036;-66
2022/11/03 13:36:54;;;;;;;7.18;2.08;;;;;;;;;;5072247;28;20087;-66
2022/11/03 13:39:21;;;;;;;7.38;2.13;;;;;;;;;;5072484;28;20088;-68
2022/11/03 13:41:47;;;;;;;7.82;1.90;;;;;;;;;;5072806;28;20500;-67
2022/11/03 13:44:13;;;;;;;6.10;1.55;;;;;;;;;;5071114;28;20048;-66
2022/11/03 13:46:39;;;;;;;8.60;1.75;;;;;;;;;;5071221;28;20124;-66
2022/11/03 13:49:05;;;;;;;6.68;2.00;;;;;;;;;;5072108;28;20454;-66
2022/11/03 13:51:31;;;;;;;6.50;1.77;;;;;;;;;;5072786;28;20037;-65
2022/11/03 13:53:57;;;;;;;6.82;1.83;;;;;;;;;;5070756;28;20068;-66
2022/11/03 13:56:23;;;;;;;6.85;1.65;;;;;;;;;;5072415;28;20044;-65
2022/11/03 13:58:50;;;;;;;7.72;2.25;;;;;;;;;;5070921;28;20036;-65
2022/11/03 14:01:16;;;;;;;4.78;1.48;;;;;;;;;;5058599;28;20040;-66
2022/11/03 14:03:42;;;;;;;7.60;1.80;;;;;;;;;;5071771;28;20048;-65
2022/11/03 14:06:08;;;;;;;7.03;1.90;;;;;;;;;;5071886;28;20051;-65
2022/11/03 14:08:34;;;;;;;4.20;1.67;;;;;;;;;;5071864;28;20056;-65
2022/11/03 14:12:29;;;;;;;3.92;1.50;;;;;;;;;;5071866;28;20541;-66
2022/11/03 14:13:46;;;;;;;5.63;1.55;;;;;;;;;;5071525;28;20059;-66
2022/11/03 14:16:12;;;;;;;7.68;1.48;;;;;;;;;;5072387;28;20051;-66
2022/11/03 14:18:38;;;;;;;2.95;1.10;;;;;;;;;;5071708;28;20128;-65
2022/11/03 14:21:04;;;;;;;7.18;1.50;;;;;;;;;;5071737;28;20904;-65
2022/11/03 14:23:30;;;;;;;8.77;1.73;;;;;;;;;;5071623;28;20118;-65
2022/11/03 14:25:56;;;;;;;7.60;1.45;;;;;;;;;;5069816;28;20192;-65
2022/11/03 14:28:22;;;;;;;6.15;2.10;;;;;;;;;;5072081;28;20036;-65
2022/11/03 14:30:48;;;;;;;6.47;1.40;;;;;;;;;;5071427;28;20037;-66
2022/11/03 14:33:14;;;;;;;5.30;1.45;;;;;;;;;;5071391;28;20047;-66
2022/11/03 14:35:40;;;;;;;5.15;1.50;;;;;;;;;;5071767;28;20040;-66
2022/11/03 14:38:07;;;;;;;7.55;1.58;;;;;;;;;;5071195;28;20052;-66
2022/11/03 14:43:17;;;;;;;5.35;1.73;;;;;;;;;;5071331;28;20048;-65
2022/11/03 14:45:43;;;;;;;6.05;1.70;;;;;;;;;;5071591;28;20384;-66
2022/11/03 14:48:09;;;;;;;5.53;1.50;;;;;;;;;;5070966;28;20045;-66
2022/11/03 14:50:36;;;;;;;4.18;1.17;;;;;;;;;;5070853;28;20424;-66
2022/11/03 14:53:01;;;;;;;4.15;1.50;;;;;;;;;;5071288;28;20040;-66
2022/11/03 14:55:28;;;;;;;7.45;1.80;;;;;;;;;;5071038;28;20392;-66
2022/11/03 14:57:54;;;;;;;5.97;1.52;;;;;;;;;;5071406;28;20052;-65
2022/11/03 15:00:20;;;;;;;6.60;1.30;;;;;;;;;;5071492;28;20033;-66
2022/11/03 15:02:46;;;;;;;6.95;1.55;;;;;;;;;;5070254;28;20048;-66
2022/11/03 15:05:42;;;;;;;5.75;1.40;;;;;;;;;;5071299;28;20052;-66
2022/11/03 15:07:58;;;;;;;5.93;1.58;;;;;;;;;;5070778;28;20068;-67
2022/11/03 15:10:24;;;;;;;3.58;1.42;;;;;;;;;;5070513;28;20051;-67
2022/11/03 15:12:50;;;;;;;5.95;1.52;;;;;;;;;;5071175;28;20123;-67
2022/11/03 15:15:16;;;;;;;8.00;1.40;;;;;;;;;;5071086;28;20048;-66
2022/11/03 15:17:42;;;;;;;4.88;1.63;;;;;;;;;;5070450;28;20033;-66
2022/11/03 15:20:09;;;;;;;6.18;1.48;;;;;;;;;;5070848;28;20375;-66
2022/11/03 15:22:35;;;;;;;7.95;1.45;;;;;;;;;;5070834;28;20041;-68
2022/11/03 15:25:01;;;;;;;5.28;1.52;;;;;;;;;;5070350;28;20041;-68
2022/11/03 15:27:27;;;;;;;4.15;1.38;;;;;;;;;;5070894;28;20063;-68
2022/11/03 15:29:53;;;;;;;5.07;1.50;;;;;;;;;;5070725;28;20040;-68
2022/11/03 15:32:19;;;;;;;6.82;1.60;;;;;;;;;;5070499;28;20048;-68
2022/11/03 15:34:45;;;;;;;6.00;1.60;;;;;;;;;;5070780;28;20125;-68
2022/11/03 15:37:11;;;;;;;6.05;1.70;;;;;;;;;;5070332;28;20056;-67
2022/11/03 15:39:37;;;;;;;6.00;1.45;;;;;;;;;;5070227;28;20048;-67
2022/11/03 15:42:03;;;;;;;7.05;1.90;;;;;;;;;;5070948;28;20513;-67
2022/11/03 15:44:29;;;;;;;9.15;1.70;;;;;;;;;;5070845;28;20068;-67
2022/11/03 15:46:55;;;;;;;7.38;1.60;;;;;;;;;;5070460;28;20467;-67
2022/11/03 15:49:21;;;;;;;6.47;1.88;;;;;;;;;;5070807;28;20080;-67
2022/11/03 15:51:47;;;;;;;5.10;1.80;;;;;;;;;;5070823;28;20044;-67
2022/11/03 15:54:13;;;;;;;4.95;2.05;;;;;;;;;;5070480;28;20078;-67
2022/11/03 15:56:39;;;;;;;8.13;1.90;;;;;;;;;;5071088;28;20145;-68
2022/11/03 15:59:06;;;;;;;5.95;1.80;;;;;;;;;;5070828;28;20048;-68
2022/11/03 16:01:34;;;;;;;6.00;1.70;;;;;;;;;;5069209;28;20098;-68
2022/11/03 16:04:00;;;;;;;6.60;1.60;;;;;;;;;;5069248;28;20052;-68
2022/11/03 16:06:26;;;;;;;4.07;1.30;;;;;;;;;;5070619;28;20036;-68
2022/11/03 16:08:52;;;;;;;7.95;1.50;;;;;;;;;;5069907;28;20109;-68
2022/11/03 16:11:18;;;;;;;8.77;2.05;;;;;;;;;;5070621;28;20044;-68
2022/11/03 16:13:44;;;;;;;6.20;2.25;;;;;;;;;;5070546;28;20040;-68
2022/11/03 16:16:10;;;;;;;7.82;2.95;;;;;;;;;;5070298;28;20435;-68
2022/11/03 16:18:37;;;;;;;4.45;1.80;;;;;;;;;;5070684;28;20084;-68
2022/11/03 16:21:03;;;;;;;8.18;2.22;;;;;;;;;;5068926;28;20407;-68